MAO weather

Eduardo Gomes International Airport
Manaus, Amazonas, Brazil

Public forecast

Using degrees Celsius for public forecast. Weather courtesy of forecast.io.

Current aviation weather report (METAR) for Eduardo Gomes International Airport

Retrieved 2019/12/08 10:00 UTC (29 minutes ago):

SBEG 081000Z 31001KT 9999 SCT015 BKN080 23/23 Q1011

Aviation forecast (TAF) for Eduardo Gomes International Airport

Retrieved 2019/12/08 06:00 UTC (4 hours ago):

TAF SBEG 080315Z 0806/0906 33010KT 8000 TS SCT017 FEW030CB TN24/0809Z TX30/0817Z PROB30 0806/0810 33015KT 5000 TSRA BKN017 FEW030CB BECMG 0810/0812 30005KT NSW SCT012 BECMG 0813/0815 35010KT 9999 TS SCT020 FEW030CB BECMG 0816/0818 07015G25KT 5000 TSRA BKN017 FEW030CB BECMG 0819/0821 04010KT 9999 NSW SCT017 FEW030TCU BECMG 0822/0824 31005KT TS SCT017 FEW030CB BECMG 0901/0903 NSW SCT010 BECMG 0904/0906 SCT007 RMK PGS